Sandy, Oregon
Current Conditions -  °F | °C
As of 1:53 AM on Wednesday 22 Oct 2014 (Local Time) from KTTD Reporting Station
Light Rain Light Rain  
Wind Chill: 55°   Ceiling: 4200
Heat Index: 55°   Visibility: 10mi
Dew Point: 51°   Wind: 9mph
Humidity: 86%   Direction: 90°E
Pressure: 29.82"   Gusts: NA
Location:  45.4°N, 122.26°W
Report Text: KTTD 220853Z AUTO 09008KT 10SM -RA OVC042 13/11 A2982 RMK AO2 SLP097 P0002 60008 T01280106 58017
Loading
Personal Weather Stations






























Interactive Weather Map
Tropical Storm Tracking
New forecast layout! Learn more

10-Day Weather Forecast

Advertisements
Track Severe Weather on mobile